Time;durP1;ratioP1;P1;durP2;ratioP2;P2;SDS_P1;SDS_P2;PMS_P1;PMS_P2;Temp;Humidity;BMP_temperature;BMP_pressure;BME280_temperature;BME280_humidity;BME280_pressure;Samples;Min_cycle;Max_cycle;Signal;HPM_P1;HPM_P2
2023/11/07 00:01:38;;;;;;;13.68;9.73;;;8.10;99.90;;;;;;7374291;19;21645;-62
2023/11/07 00:04:07;;;;;;;17.85;11.10;;;8.10;99.90;;;;;;7378216;19;20691;-60
2023/11/07 00:06:34;;;;;;;21.88;10.15;;;8.10;99.90;;;;;;7375615;19;20041;-61
2023/11/07 00:09:01;;;;;;;17.95;11.85;;;8.10;99.90;;;;;;7376945;19;20018;-60
2023/11/07 00:11:27;;;;;;;21.48;12.20;;;8.10;99.90;;;;;;7372897;19;20018;-61
2023/11/07 00:13:54;;;;;;;16.20;12.68;;;8.10;99.90;;;;;;7375410;19;20032;-61
2023/11/07 00:16:20;;;;;;;22.70;13.68;;;8.20;99.90;;;;;;7374919;19;20466;-61
2023/11/07 00:18:47;;;;;;;26.20;13.45;;;8.20;99.90;;;;;;7375663;19;20507;-61
2023/11/07 00:21:13;;;;;;;23.63;13.90;;;8.30;99.90;;;;;;7370610;19;20412;-61
2023/11/07 00:23:39;;;;;;;24.67;13.93;;;8.40;99.90;;;;;;7375089;19;20074;-61
2023/11/07 00:26:06;;;;;;;24.60;15.30;;;8.40;99.90;;;;;;7373584;19;20030;-61
2023/11/07 00:28:32;;;;;;;24.60;14.45;;;8.50;99.90;;;;;;7376184;19;20019;-61
2023/11/07 00:30:58;;;;;;;25.90;14.48;;;8.50;99.90;;;;;;7370286;19;20026;-61
2023/11/07 00:33:24;;;;;;;21.35;14.05;;;8.50;99.90;;;;;;7374110;19;20678;-61
2023/11/07 00:35:51;;;;;;;19.45;13.50;;;8.60;99.90;;;;;;7374588;19;20022;-61
2023/11/07 00:38:17;;;;;;;24.83;14.77;;;8.60;99.90;;;;;;7374328;19;20025;-61
2023/11/07 00:40:43;;;;;;;23.33;13.98;;;8.60;99.90;;;;;;7369299;19;20010;-61
2023/11/07 00:43:09;;;;;;;22.17;14.60;;;8.60;99.90;;;;;;7373667;19;20728;-61
2023/11/07 00:45:35;;;;;;;21.00;14.40;;;8.60;99.90;;;;;;7371064;19;20478;-61
2023/11/07 00:48:02;;;;;;;20.00;14.55;;;8.70;99.90;;;;;;7377167;19;20031;-62
2023/11/07 00:50:28;;;;;;;21.70;14.27;;;8.80;99.90;;;;;;7376475;19;20098;-62
2023/11/07 00:52:55;;;;;;;26.70;15.18;;;8.70;99.90;;;;;;7376630;19;20769;-62
2023/11/07 00:55:21;;;;;;;22.63;15.30;;;8.80;99.90;;;;;;7373269;19;20650;-61
2023/11/07 00:57:47;;;;;;;24.52;15.48;;;8.80;99.90;;;;;;7370726;19;20902;-61
2023/11/07 01:00:14;;;;;;;23.92;16.25;;;8.90;99.90;;;;;;7372918;19;20021;-61
2023/11/07 01:02:40;;;;;;;26.48;14.95;;;9.00;99.90;;;;;;7372387;19;20387;-61
2023/11/07 01:05:07;;;;;;;19.77;15.88;;;9.00;99.90;;;;;;7377458;19;20052;-62
2023/11/07 01:07:33;;;;;;;21.10;15.05;;;9.10;99.90;;;;;;7377653;19;20029;-62
2023/11/07 01:09:59;;;;;;;26.38;15.20;;;9.10;99.90;;;;;;7375848;19;20021;-62
2023/11/07 01:12:27;;;;;;;21.60;14.57;;;9.10;99.90;;;;;;7373696;19;20086;-61
2023/11/07 01:14:55;;;;;;;23.33;15.43;;;9.10;99.90;;;;;;7371934;19;20074;-61
2023/11/07 01:17:21;;;;;;;20.73;14.05;;;9.10;99.90;;;;;;7369183;19;20379;-61
2023/11/07 01:19:47;;;;;;;18.45;13.20;;;9.10;99.90;;;;;;7361458;19;20457;-61
2023/11/07 01:22:13;;;;;;;21.02;12.35;;;9.10;99.90;;;;;;7373823;19;20570;-61
2023/11/07 01:24:39;;;;;;;16.48;10.90;;;9.10;99.90;;;;;;7374793;19;20413;-61
2023/11/07 01:27:06;;;;;;;16.80;11.00;;;9.10;99.90;;;;;;7382289;19;20058;-62
2023/11/07 01:29:32;;;;;;;16.73;12.15;;;9.00;99.90;;;;;;7382133;19;20145;-63
2023/11/07 01:31:58;;;;;;;18.98;11.00;;;9.00;99.90;;;;;;7382871;19;20022;-62
2023/11/07 01:34:24;;;;;;;20.35;11.13;;;8.90;99.90;;;;;;7380603;19;20014;-62
2023/11/07 01:36:50;;;;;;;13.40;10.40;;;8.90;99.90;;;;;;7382071;19;20022;-63
2023/11/07 01:39:16;;;;;;;18.35;10.18;;;8.80;99.90;;;;;;7381406;19;20707;-62
2023/11/07 01:41:44;;;;;;;15.63;9.82;;;8.80;99.90;;;;;;7375789;19;20021;-62
2023/11/07 01:44:10;;;;;;;17.15;9.93;;;8.90;99.90;;;;;;7380858;19;20022;-62
2023/11/07 01:46:37;;;;;;;18.85;9.30;;;8.90;99.90;;;;;;7380900;19;20018;-63
2023/11/07 01:49:05;;;;;;;18.38;9.15;;;8.80;99.90;;;;;;7381866;19;20026;-63
2023/11/07 01:51:31;;;;;;;15.07;9.18;;;8.80;99.90;;;;;;7382040;19;20030;-62
2023/11/07 01:53:57;;;;;;;18.35;9.32;;;8.80;99.90;;;;;;7380874;19;20093;-63
2023/11/07 01:56:26;;;;;;;18.13;8.68;;;8.80;99.90;;;;;;7382669;19;20022;-62
2023/11/07 01:58:54;;;;;;;15.73;9.00;;;8.70;99.90;;;;;;7379783;19;20496;-62
2023/11/07 02:01:20;;;;;;;14.57;8.90;;;8.60;99.90;;;;;;7378476;19;20023;-61
2023/11/07 02:03:46;;;;;;;13.52;8.70;;;8.60;99.90;;;;;;7376347;19;20253;-61
2023/11/07 02:06:19;;;;;;;16.00;8.57;;;8.60;99.90;;;;;;7376205;19;20489;-61
2023/11/07 02:08:45;;;;;;;15.93;9.00;;;8.60;99.90;;;;;;7375457;19;20038;-61
2023/11/07 02:11:11;;;;;;;18.00;9.65;;;8.60;99.90;;;;;;7379323;19;20797;-61
2023/11/07 02:13:39;;;;;;;17.05;8.57;;;8.60;99.90;;;;;;7377248;19;20090;-61
2023/11/07 02:16:07;;;;;;;16.30;9.38;;;8.60;99.90;;;;;;7381921;19;20022;-61
2023/11/07 02:18:33;;;;;;;14.93;8.30;;;8.50;99.90;;;;;;7376318;19;20023;-61
2023/11/07 02:20:59;;;;;;;16.10;8.00;;;8.40;99.90;;;;;;7374062;19;20030;-61
2023/11/07 02:23:29;;;;;;;15.70;8.20;;;8.50;99.90;;;;;;7376696;19;20041;-60
2023/11/07 02:25:56;;;;;;;14.35;7.85;;;8.40;99.90;;;;;;7373255;19;20018;-61
2023/11/07 02:28:24;;;;;;;15.13;7.90;;;8.50;99.90;;;;;;7378517;19;20485;-62
2023/11/07 02:30:50;;;;;;;17.80;8.75;;;8.50;99.90;;;;;;7378982;19;20477;-62
2023/11/07 02:33:19;;;;;;;13.50;7.10;;;8.40;99.90;;;;;;7380551;19;20046;-62
2023/11/07 02:35:46;;;;;;;16.00;8.10;;;8.40;99.90;;;;;;7378126;19;20045;-62
2023/11/07 02:38:12;;;;;;;16.75;7.90;;;8.40;99.90;;;;;;7380479;19;20022;-62
2023/11/07 02:40:39;;;;;;;16.27;7.13;;;8.40;99.90;;;;;;7377790;19;20023;-62
2023/11/07 02:43:05;;;;;;;13.15;7.47;;;8.30;99.90;;;;;;7381977;19;20024;-62
2023/11/07 02:45:35;;;;;;;17.88;8.60;;;8.30;99.90;;;;;;7384015;19;20021;-62
2023/11/07 02:48:03;;;;;;;16.23;7.90;;;8.30;99.90;;;;;;7384832;19;20018;-62
2023/11/07 02:50:31;;;;;;;13.75;7.65;;;8.30;99.90;;;;;;7382002;19;20019;-62
2023/11/07 02:52:58;;;;;;;16.35;7.45;;;8.30;99.90;;;;;;7383168;19;20018;-62
2023/11/07 02:55:24;;;;;;;16.70;8.43;;;8.30;99.90;;;;;;7381555;19;20015;-63
2023/11/07 02:57:51;;;;;;;17.83;7.82;;;8.30;99.90;;;;;;7380260;19;20018;-62
2023/11/07 03:00:17;;;;;;;14.55;7.97;;;8.20;99.90;;;;;;7379205;19;20010;-61
2023/11/07 03:02:44;;;;;;;11.73;6.60;;;8.30;99.90;;;;;;7380587;19;20462;-62
2023/11/07 03:05:10;;;;;;;13.70;7.68;;;8.20;99.90;;;;;;7376025;19;20029;-64
2023/11/07 03:07:36;;;;;;;13.90;7.85;;;8.20;99.90;;;;;;7374969;19;20018;-61
2023/11/07 03:10:03;;;;;;;15.93;6.68;;;8.20;99.90;;;;;;7372842;19;20060;-61
2023/11/07 03:12:32;;;;;;;21.38;7.88;;;8.20;99.90;;;;;;7375384;19;20026;-62
2023/11/07 03:14:59;;;;;;;14.13;7.00;;;8.20;99.90;;;;;;7376828;19;20029;-61
2023/11/07 03:17:26;;;;;;;14.90;7.47;;;8.20;99.90;;;;;;7374876;19;20495;-61
2023/11/07 03:19:53;;;;;;;19.58;8.20;;;8.20;99.90;;;;;;7375430;19;20021;-62
2023/11/07 03:22:20;;;;;;;11.95;6.93;;;8.30;99.90;;;;;;7376815;19;20751;-61
2023/11/07 03:24:50;;;;;;;16.90;7.60;;;8.30;99.90;;;;;;7373876;19;20022;-61
2023/11/07 03:27:16;;;;;;;18.88;6.47;;;8.20;99.90;;;;;;7374680;19;20019;-61
2023/11/07 03:29:42;;;;;;;13.27;6.53;;;8.20;99.90;;;;;;7379217;19;20017;-62
2023/11/07 03:32:09;;;;;;;12.32;6.55;;;8.20;99.90;;;;;;7375649;19;20018;-61
2023/11/07 03:34:35;;;;;;;13.10;6.82;;;8.20;99.90;;;;;;7376680;19;20042;-61
2023/11/07 03:37:02;;;;;;;13.60;6.70;;;8.20;99.90;;;;;;7374671;19;20042;-62
2023/11/07 03:39:29;;;;;;;15.57;6.97;;;8.20;99.90;;;;;;7381522;19;20074;-62
2023/11/07 03:41:56;;;;;;;12.60;7.55;;;8.20;99.90;;;;;;7372257;19;20423;-62
2023/11/07 03:44:22;;;;;;;11.98;6.57;;;8.20;99.90;;;;;;7375685;19;20018;-63
2023/11/07 03:46:48;;;;;;;11.68;6.50;;;8.20;99.90;;;;;;7376359;19;20018;-62
2023/11/07 03:49:16;;;;;;;15.73;6.93;;;8.20;99.90;;;;;;7380501;19;20043;-62
2023/11/07 03:51:42;;;;;;;15.18;7.45;;;8.20;99.90;;;;;;7375813;19;20086;-62
2023/11/07 03:54:08;;;;;;;17.92;7.55;;;8.20;99.90;;;;;;7376437;19;20018;-63
2023/11/07 03:56:35;;;;;;;12.68;6.82;;;8.20;99.90;;;;;;7379541;19;20078;-62
2023/11/07 03:59:02;;;;;;;15.07;7.45;;;8.20;99.90;;;;;;7376288;19;20058;-63
2023/11/07 04:01:37;;;;;;;11.27;7.55;;;8.30;99.90;;;;;;7374818;19;20018;-62
2023/11/07 04:04:04;;;;;;;19.60;8.25;;;8.20;99.90;;;;;;7380396;19;20015;-62
2023/11/07 04:06:31;;;;;;;18.70;8.25;;;8.30;99.90;;;;;;7375618;19;20062;-62
2023/11/07 04:08:58;;;;;;;13.82;7.85;;;8.20;99.90;;;;;;7372199;19;21013;-61
2023/11/07 04:11:25;;;;;;;15.88;7.90;;;8.30;99.90;;;;;;7372740;19;20740;-61
2023/11/07 04:13:52;;;;;;;20.10;8.25;;;8.30;99.90;;;;;;7370701;19;20014;-61
2023/11/07 04:16:19;;;;;;;19.15;8.23;;;8.30;99.90;;;;;;7370866;19;20018;-62
2023/11/07 04:18:46;;;;;;;17.35;7.93;;;8.30;99.90;;;;;;7368011;19;20015;-61
2023/11/07 04:21:12;;;;;;;16.42;7.70;;;8.30;99.90;;;;;;7370362;19;20043;-61
2023/11/07 04:23:40;;;;;;;16.90;7.45;;;8.30;99.90;;;;;;7367824;19;20018;-62
2023/11/07 04:26:07;;;;;;;16.20;7.25;;;8.40;99.90;;;;;;7372263;19;20014;-63
2023/11/07 04:28:37;;;;;;;16.92;7.78;;;8.40;99.90;;;;;;7372109;19;20833;-63
2023/11/07 04:31:05;;;;;;;16.13;7.85;;;8.50;99.90;;;;;;7371578;19;20021;-63
2023/11/07 04:33:36;;;;;;;15.07;8.18;;;8.50;99.90;;;;;;7374560;19;20513;-63
2023/11/07 04:36:02;;;;;;;14.35;7.60;;;8.40;99.90;;;;;;7373622;19;20018;-63
2023/11/07 04:38:30;;;;;;;16.60;7.95;;;8.50;99.90;;;;;;7373921;19;20134;-63
2023/11/07 04:40:56;;;;;;;13.18;7.18;;;8.40;99.90;;;;;;7371159;19;20038;-64
2023/11/07 04:43:23;;;;;;;17.83;8.18;;;8.40;99.90;;;;;;7375244;19;20378;-63
2023/11/07 04:45:49;;;;;;;16.50;8.00;;;8.30;99.90;;;;;;7372960;19;20077;-61
2023/11/07 04:48:19;;;;;;;15.10;7.93;;;8.30;99.90;;;;;;7367339;19;20015;-61
2023/11/07 04:50:45;;;;;;;16.65;7.90;;;8.30;99.90;;;;;;7368920;19;20734;-61
2023/11/07 04:53:11;;;;;;;15.15;8.52;;;8.30;99.90;;;;;;7367091;19;20082;-61
2023/11/07 04:55:38;;;;;;;14.30;7.85;;;8.30;99.90;;;;;;7374449;19;20042;-61
2023/11/07 04:58:04;;;;;;;15.20;8.15;;;8.20;99.90;;;;;;7376423;19;21464;-61
2023/11/07 05:00:30;;;;;;;12.95;7.80;;;8.20;99.90;;;;;;7373147;19;20399;-61
2023/11/07 05:02:57;;;;;;;16.58;8.50;;;8.20;99.90;;;;;;7376551;19;20019;-62
2023/11/07 05:05:23;;;;;;;20.92;9.68;;;8.10;99.90;;;;;;7377560;19;20022;-61
2023/11/07 05:07:50;;;;;;;13.18;7.78;;;8.10;99.90;;;;;;7378314;19;20023;-61
2023/11/07 05:10:17;;;;;;;17.92;8.32;;;8.00;99.90;;;;;;7375850;19;20033;-61
2023/11/07 05:12:43;;;;;;;16.83;7.95;;;8.00;99.90;;;;;;7371011;19;20022;-61
2023/11/07 05:15:09;;;;;;;18.17;8.35;;;8.10;99.90;;;;;;7374373;19;20018;-61
2023/11/07 05:17:36;;;;;;;13.77;7.53;;;8.10;99.90;;;;;;7376768;19;20697;-62
2023/11/07 05:20:08;;;;;;;16.80;7.97;;;8.10;99.90;;;;;;7372646;19;20585;-61
2023/11/07 05:22:34;;;;;;;15.40;7.50;;;8.10;99.90;;;;;;7368126;19;20019;-60
2023/11/07 05:25:00;;;;;;;10.52;7.53;;;8.10;99.90;;;;;;7371190;19;20018;-60
2023/11/07 05:27:27;;;;;;;17.10;8.23;;;8.20;99.90;;;;;;7374950;19;20022;-61
2023/11/07 05:29:54;;;;;;;12.90;7.72;;;8.20;99.90;;;;;;7376015;19;20042;-60
2023/11/07 05:32:23;;;;;;;15.13;8.63;;;8.20;99.90;;;;;;7378003;19;20419;-59
2023/11/07 05:34:50;;;;;;;17.10;7.32;;;8.30;99.90;;;;;;7373827;19;20018;-59
2023/11/07 05:37:17;;;;;;;18.88;7.80;;;8.20;99.90;;;;;;7379832;19;20018;-59
2023/11/07 05:39:44;;;;;;;14.75;8.85;;;8.20;99.90;;;;;;7374231;19;20010;-60
2023/11/07 05:42:11;;;;;;;16.35;7.90;;;8.20;99.90;;;;;;7379278;19;20018;-59
2023/11/07 05:44:38;;;;;;;17.85;8.00;;;8.20;99.90;;;;;;7375705;19;20045;-61
2023/11/07 05:47:06;;;;;;;16.05;8.43;;;8.30;99.90;;;;;;7378681;19;20805;-59
2023/11/07 05:49:34;;;;;;;14.30;7.28;;;8.20;99.90;;;;;;7378317;19;20589;-59
2023/11/07 05:52:00;;;;;;;18.00;8.48;;;8.10;99.90;;;;;;7380347;19;20584;-60
2023/11/07 05:54:26;;;;;;;15.10;8.38;;;8.10;99.90;;;;;;7377308;19;20035;-60
2023/11/07 05:56:52;;;;;;;15.63;8.00;;;8.20;99.90;;;;;;7376862;19;20033;-59
2023/11/07 05:59:18;;;;;;;16.15;8.80;;;8.20;99.90;;;;;;7375856;19;20018;-59
2023/11/07 06:01:45;;;;;;;16.92;8.45;;;8.20;99.90;;;;;;7375085;19;20018;-59
2023/11/07 06:04:33;;;;;;;14.80;8.68;;;8.20;99.90;;;;;;7373440;19;20119;-60
2023/11/07 06:06:59;;;;;;;16.27;8.23;;;8.20;99.90;;;;;;7378825;19;20014;-59
2023/11/07 06:09:26;;;;;;;13.20;7.82;;;8.30;99.90;;;;;;7374257;19;20014;-60
2023/11/07 06:11:56;;;;;;;17.35;9.45;;;8.30;99.90;;;;;;7374450;19;20106;-60
2023/11/07 06:14:26;;;;;;;15.25;8.93;;;8.30;99.90;;;;;;7376296;19;20022;-61
2023/11/07 06:16:53;;;;;;;15.38;8.23;;;8.40;99.90;;;;;;7371756;19;20074;-59
2023/11/07 06:19:23;;;;;;;16.52;9.40;;;8.40;99.90;;;;;;7369056;19;21578;-59
2023/11/07 06:21:50;;;;;;;16.88;8.23;;;8.40;99.90;;;;;;7368745;19;20010;-60
2023/11/07 06:24:17;;;;;;;17.02;8.65;;;8.40;99.90;;;;;;7373564;19;20019;-60
2023/11/07 06:26:43;;;;;;;16.45;8.80;;;8.40;99.90;;;;;;7367950;19;20018;-63
2023/11/07 06:29:10;;;;;;;15.52;9.02;;;8.30;99.90;;;;;;7371721;19;20667;-62
2023/11/07 06:31:36;;;;;;;13.52;8.63;;;8.30;99.90;;;;;;7375886;19;20155;-62
2023/11/07 06:34:04;;;;;;;15.32;8.02;;;8.30;99.90;;;;;;7374067;19;20879;-62
2023/11/07 06:36:31;;;;;;;15.32;8.82;;;8.20;99.90;;;;;;7373973;19;20294;-62
2023/11/07 06:38:57;;;;;;;16.95;8.02;;;8.20;99.90;;;;;;7372443;19;20370;-62
2023/11/07 06:41:28;;;;;;;18.55;8.40;;;8.20;99.90;;;;;;7374076;19;20022;-62
2023/11/07 06:43:54;;;;;;;20.83;8.95;;;8.10;99.90;;;;;;7376915;19;20021;-62
2023/11/07 06:46:20;;;;;;;18.17;8.75;;;8.10;99.90;;;;;;7374518;19;20094;-64
2023/11/07 06:48:48;;;;;;;18.25;8.80;;;8.00;99.90;;;;;;7376693;19;20380;-64
2023/11/07 06:51:18;;;;;;;19.92;8.75;;;8.00;99.90;;;;;;7375593;19;20022;-62
2023/11/07 06:53:45;;;;;;;17.67;9.20;;;8.00;99.90;;;;;;7376027;19;20030;-62
2023/11/07 06:56:13;;;;;;;17.13;9.80;;;8.00;99.90;;;;;;7377905;19;20028;-62
2023/11/07 06:58:43;;;;;;;15.65;8.95;;;8.00;99.90;;;;;;7376108;19;20389;-63
2023/11/07 07:01:13;;;;;;;17.65;8.52;;;8.00;99.90;;;;;;7374066;19;20022;-62
2023/11/07 07:03:40;;;;;;;16.77;7.95;;;8.00;99.90;;;;;;7372716;19;20021;-62
2023/11/07 07:06:07;;;;;;;14.85;8.85;;;8.00;99.90;;;;;;7377229;19;20514;-62
2023/11/07 07:08:35;;;;;;;15.93;8.00;;;7.90;99.90;;;;;;7374318;19;20044;-62
2023/11/07 07:11:01;;;;;;;16.17;8.68;;;7.90;99.90;;;;;;7372766;19;20089;-61
2023/11/07 07:13:27;;;;;;;16.67;9.40;;;7.80;99.90;;;;;;7375299;19;20039;-62
2023/11/07 07:15:53;;;;;;;16.80;9.18;;;7.90;99.90;;;;;;7371904;19;20027;-63
2023/11/07 07:18:22;;;;;;;15.02;8.43;;;7.90;99.90;;;;;;7372238;19;20905;-61
2023/11/07 07:20:53;;;;;;;14.15;8.90;;;8.00;99.90;;;;;;7368486;19;20018;-62
2023/11/07 07:23:24;;;;;;;16.35;8.50;;;8.00;99.90;;;;;;7374246;19;20019;-62
2023/11/07 07:25:52;;;;;;;13.15;8.07;;;8.00;99.90;;;;;;7377944;19;20385;-63
2023/11/07 07:28:20;;;;;;;15.73;8.63;;;8.10;99.90;;;;;;7380803;19;20019;-63
2023/11/07 07:30:48;;;;;;;15.30;8.40;;;8.10;99.90;;;;;;7378816;19;20095;-63
2023/11/07 07:33:16;;;;;;;17.85;8.60;;;8.10;99.90;;;;;;7383314;19;20363;-63
2023/11/07 07:35:45;;;;;;;16.45;8.50;;;8.10;99.90;;;;;;7381632;19;20022;-63
2023/11/07 07:38:11;;;;;;;18.30;8.15;;;8.00;99.90;;;;;;7380252;19;20035;-63
2023/11/07 07:40:38;;;;;;;18.25;9.13;;;8.00;99.90;;;;;;7381335;19;20026;-63
2023/11/07 07:43:11;;;;;;;16.75;8.65;;;8.00;99.90;;;;;;7380168;19;20085;-63
2023/11/07 07:45:44;;;;;;;21.67;9.50;;;8.10;99.90;;;;;;7381534;19;20042;-63
2023/11/07 07:48:10;;;;;;;16.23;8.63;;;8.10;99.90;;;;;;7382777;19;20492;-62
2023/11/07 07:50:41;;;;;;;13.40;7.78;;;8.20;99.90;;;;;;7383331;19;20019;-63
2023/11/07 07:53:14;;;;;;;15.75;8.25;;;8.30;99.90;;;;;;7376529;19;20026;-66
2023/11/07 07:55:43;;;;;;;15.40;10.85;;;8.30;99.90;;;;;;7370983;19;20018;-62
2023/11/07 07:58:18;;;;;;;13.77;8.50;;;8.40;99.90;;;;;;7372496;19;20018;-64
2023/11/07 08:00:53;;;;;;;12.93;8.50;;;8.40;99.90;;;;;;7369862;19;20018;-62
2023/11/07 08:03:20;;;;;;;16.05;8.38;;;8.30;99.90;;;;;;7375020;19;20011;-62
2023/11/07 08:05:46;;;;;;;14.93;8.70;;;8.40;99.90;;;;;;7372532;19;20156;-65
2023/11/07 08:08:16;;;;;;;18.02;9.45;;;8.40;99.90;;;;;;7375237;19;20389;-64
2023/11/07 08:10:47;;;;;;;16.15;9.77;;;8.40;99.90;;;;;;7371098;19;20018;-62
2023/11/07 08:13:16;;;;;;;14.75;9.52;;;8.30;99.90;;;;;;7373410;19;20782;-62
2023/11/07 08:15:43;;;;;;;18.33;10.43;;;8.30;99.90;;;;;;7367882;19;20482;-59
2023/11/07 08:18:10;;;;;;;16.75;10.02;;;8.30;99.90;;;;;;7372569;19;20030;-62
2023/11/07 08:20:37;;;;;;;16.17;9.75;;;8.50;99.90;;;;;;7369534;19;20482;-61
2023/11/07 08:23:04;;;;;;;15.90;9.15;;;9.10;99.90;;;;;;7369788;19;20588;-59
2023/11/07 08:25:32;;;;;;;12.80;7.95;;;9.70;99.90;;;;;;7371641;19;20074;-60
2023/11/07 08:27:58;;;;;;;12.98;8.18;;;10.40;99.90;;;;;;7369425;19;20935;-63
2023/11/07 08:30:25;;;;;;;10.38;7.38;;;10.90;99.90;;;;;;7370500;19;20060;-63
2023/11/07 08:32:52;;;;;;;9.98;7.20;;;11.60;99.90;;;;;;7374288;19;20022;-61
2023/11/07 08:35:19;;;;;;;13.05;7.93;;;11.70;99.90;;;;;;7376894;19;20391;-61
2023/11/07 08:37:54;;;;;;;9.82;7.30;;;11.70;99.90;;;;;;7375059;19;20010;-61
2023/11/07 08:40:24;;;;;;;11.48;6.85;;;11.80;99.90;;;;;;7376210;19;20019;-61
2023/11/07 08:42:51;;;;;;;12.38;7.80;;;12.00;99.90;;;;;;7373986;19;20022;-61
2023/11/07 08:45:20;;;;;;;13.57;7.22;;;11.60;99.90;;;;;;7377871;19;20022;-61
2023/11/07 08:47:50;;;;;;;12.05;7.45;;;11.30;99.90;;;;;;7375896;19;20018;-60
2023/11/07 08:50:23;;;;;;;9.90;7.10;;;11.60;99.90;;;;;;7376381;19;20105;-61
2023/11/07 08:52:50;;;;;;;11.65;7.60;;;12.00;99.90;;;;;;7373124;19;20014;-61
2023/11/07 08:55:17;;;;;;;10.18;7.45;;;12.50;99.90;;;;;;7376377;19;20018;-59
2023/11/07 08:57:49;;;;;;;10.10;6.60;;;12.90;99.90;;;;;;7372563;19;20025;-61
2023/11/07 09:00:22;;;;;;;8.77;6.55;;;13.10;99.90;;;;;;7371233;19;21865;-60
2023/11/07 09:02:49;;;;;;;9.30;6.78;;;12.70;99.90;;;;;;7372977;19;20018;-61
2023/11/07 09:05:16;;;;;;;11.05;6.97;;;12.80;99.90;;;;;;7369743;19;20112;-61
2023/11/07 09:07:43;;;;;;;10.07;7.40;;;13.20;99.90;;;;;;7369582;19;20022;-60
2023/11/07 09:10:12;;;;;;;11.43;7.50;;;13.30;99.90;;;;;;7372798;19;20015;-60
2023/11/07 09:12:42;;;;;;;11.73;7.90;;;12.90;99.90;;;;;;7370481;19;20716;-60
2023/11/07 09:15:10;;;;;;;13.38;7.70;;;13.30;99.90;;;;;;7373435;19;20595;-60
2023/11/07 09:17:39;;;;;;;9.48;7.22;;;13.10;99.90;;;;;;7371544;19;20022;-60
2023/11/07 09:20:11;;;;;;;12.38;7.88;;;13.30;99.90;;;;;;7371348;19;20029;-60
2023/11/07 09:22:39;;;;;;;12.30;7.22;;;13.30;99.90;;;;;;7370021;19;20022;-60
2023/11/07 09:25:07;;;;;;;10.00;7.53;;;12.70;99.90;;;;;;7369642;19;20014;-60
2023/11/07 09:27:34;;;;;;;9.55;7.55;;;12.20;99.90;;;;;;7370171;19;20507;-62
2023/11/07 09:30:00;;;;;;;11.38;8.43;;;11.90;99.90;;;;;;7373256;19;20018;-60
2023/11/07 09:32:27;;;;;;;10.60;7.32;;;11.60;99.90;;;;;;7372996;19;20029;-60
2023/11/07 09:34:57;;;;;;;12.00;8.20;;;11.40;99.90;;;;;;7364784;19;20482;-62
2023/11/07 09:37:24;;;;;;;11.98;8.60;;;11.10;99.90;;;;;;7374404;19;20015;-63
2023/11/07 09:39:50;;;;;;;12.98;9.05;;;11.10;99.90;;;;;;7370684;19;20018;-63
2023/11/07 09:42:17;;;;;;;9.90;8.82;;;10.90;99.90;;;;;;7374180;19;20022;-60
2023/11/07 09:44:43;;;;;;;12.02;8.23;;;10.80;99.90;;;;;;7375272;19;20015;-60
2023/11/07 09:47:11;;;;;;;13.90;9.45;;;10.70;99.90;;;;;;7377824;19;20407;-60
2023/11/07 09:49:37;;;;;;;12.88;9.60;;;10.60;99.90;;;;;;7377052;19;20347;-58
2023/11/07 09:52:07;;;;;;;14.57;9.70;;;10.50;99.90;;;;;;7372020;19;20023;-60
2023/11/07 09:54:34;;;;;;;13.48;8.73;;;10.70;99.90;;;;;;7376343;19;20702;-60
2023/11/07 09:57:08;;;;;;;11.35;7.63;;;11.20;99.90;;;;;;7375680;19;20102;-60
2023/11/07 09:59:44;;;;;;;14.85;8.65;;;11.10;99.90;;;;;;7374145;19;20175;-62
2023/11/07 10:02:10;;;;;;;11.32;8.73;;;11.10;99.90;;;;;;7374899;19;20431;-62
2023/11/07 10:04:42;;;;;;;10.93;8.27;;;11.10;99.90;;;;;;7377784;19;20052;-61
2023/11/07 10:07:08;;;;;;;10.57;7.68;;;11.40;99.90;;;;;;7377119;19;20019;-62
2023/11/07 10:09:34;;;;;;;11.35;7.93;;;11.70;99.90;;;;;;7373367;19;20017;-61
2023/11/07 10:12:01;;;;;;;10.02;7.95;;;11.80;99.90;;;;;;7369495;19;20111;-59
2023/11/07 10:14:27;;;;;;;9.25;7.63;;;12.60;99.90;;;;;;7375209;19;20095;-59
2023/11/07 10:16:58;;;;;;;10.57;7.45;;;12.50;99.90;;;;;;7374525;19;20698;-59
2023/11/07 10:19:25;;;;;;;9.63;7.68;;;12.00;99.90;;;;;;7377346;19;20375;-59
2023/11/07 10:21:52;;;;;;;8.93;7.43;;;11.70;99.90;;;;;;7376056;19;20011;-62
2023/11/07 10:24:19;;;;;;;11.07;7.20;;;11.70;99.90;;;;;;7375876;19;20035;-62
2023/11/07 10:26:58;;;;;;;9.80;6.80;;;11.50;99.90;;;;;;7375813;19;20019;-59
2023/11/07 10:29:27;;;;;;;13.10;8.18;;;11.60;99.90;;;;;;7374684;19;20023;-59
2023/11/07 10:32:08;;;;;;;13.30;8.20;;;11.40;99.90;;;;;;7376740;19;21875;-60
2023/11/07 10:34:39;;;;;;;11.02;7.35;;;11.20;99.90;;;;;;7371665;19;20014;-60
2023/11/07 10:37:05;;;;;;;12.27;8.13;;;11.10;99.90;;;;;;7374094;19;20018;-60
2023/11/07 10:39:33;;;;;;;12.43;7.97;;;11.10;99.90;;;;;;7370484;19;20446;-61
2023/11/07 10:42:17;;;;;;;8.77;7.43;;;11.30;99.90;;;;;;7373064;19;20036;-61
2023/11/07 10:44:44;;;;;;;9.07;7.03;;;11.90;99.90;;;;;;7372893;19;20017;-60
2023/11/07 10:47:11;;;;;;;9.60;7.00;;;11.90;99.90;;;;;;7372423;19;20101;-60
2023/11/07 10:49:38;;;;;;;10.82;8.00;;;12.80;99.90;;;;;;7373971;19;20046;-60
2023/11/07 10:52:05;;;;;;;8.30;6.78;;;12.70;99.90;;;;;;7371919;19;20022;-61
2023/11/07 10:54:32;;;;;;;8.10;6.78;;;12.50;99.90;;;;;;7373929;19;20022;-61
2023/11/07 10:57:23;;;;;;;8.57;6.57;;;13.30;99.90;;;;;;7372663;19;20016;-61
2023/11/07 10:59:53;;;;;;;8.60;6.70;;;13.60;99.90;;;;;;7373397;19;20022;-62
2023/11/07 11:02:24;;;;;;;10.50;6.75;;;13.30;99.90;;;;;;7372050;19;20098;-62
2023/11/07 11:04:51;;;;;;;7.57;6.53;;;13.10;99.90;;;;;;7380740;19;20048;-62
2023/11/07 11:07:19;;;;;;;8.35;6.53;;;13.20;99.90;;;;;;7377488;19;20593;-62
2023/11/07 11:09:47;;;;;;;9.77;6.65;;;13.00;99.90;;;;;;7376707;19;20089;-62
2023/11/07 11:12:17;;;;;;;7.60;6.47;;;12.70;99.90;;;;;;7378725;19;20026;-62
2023/11/07 11:14:45;;;;;;;10.75;6.70;;;12.50;99.90;;;;;;7375269;19;20015;-62
2023/11/07 11:17:21;;;;;;;11.20;7.38;;;12.30;99.90;;;;;;7378068;19;20025;-62
2023/11/07 11:19:56;;;;;;;9.15;6.82;;;12.10;99.90;;;;;;7375872;19;20048;-62
2023/11/07 11:22:25;;;;;;;10.95;7.40;;;12.10;99.90;;;;;;7375637;19;20014;-62
2023/11/07 11:25:25;;;;;;;10.27;6.90;;;11.90;99.90;;;;;;7376528;19;20081;-62
2023/11/07 11:28:01;;;;;;;9.43;6.70;;;11.90;99.90;;;;;;7377185;19;20093;-61
2023/11/07 11:30:31;;;;;;;8.98;6.80;;;11.90;99.90;;;;;;7375955;19;20043;-62
2023/11/07 11:33:26;;;;;;;9.98;7.03;;;11.90;99.90;;;;;;7374746;19;20007;-62
2023/11/07 11:35:52;;;;;;;10.40;6.70;;;11.90;99.90;;;;;;7377239;19;20363;-62
2023/11/07 11:38:23;;;;;;;8.32;6.75;;;11.80;99.90;;;;;;7374678;19;20026;-62
2023/11/07 11:40:57;;;;;;;8.98;7.05;;;11.80;99.90;;;;;;7375811;19;20022;-62
2023/11/07 11:43:25;;;;;;;9.15;6.63;;;11.90;99.90;;;;;;7375692;19;20025;-62
2023/11/07 11:45:55;;;;;;;8.20;6.93;;;11.90;99.90;;;;;;7374616;19;20035;-60
2023/11/07 11:48:49;;;;;;;12.73;6.85;;;11.80;99.90;;;;;;7372715;19;20474;-62
2023/11/07 11:51:41;;;;;;;9.90;7.10;;;11.70;99.90;;;;;;7373493;19;20106;-60
2023/11/07 11:54:10;;;;;;;7.97;6.30;;;11.70;99.90;;;;;;7373598;19;20014;-61
2023/11/07 11:56:51;;;;;;;9.48;6.15;;;11.60;99.90;;;;;;7370630;19;20011;-61
2023/11/07 11:59:29;;;;;;;9.13;6.32;;;11.50;99.90;;;;;;7374222;19;21126;-62
2023/11/07 12:01:58;;;;;;;14.77;6.78;;;11.40;99.90;;;;;;7371218;19;20018;-62
2023/11/07 12:04:35;;;;;;;6.93;6.13;;;11.30;99.90;;;;;;7373393;19;20015;-62
2023/11/07 12:07:14;;;;;;;9.15;6.47;;;11.20;99.90;;;;;;7371049;19;20351;-60
2023/11/07 12:09:47;;;;;;;9.40;5.85;;;11.20;99.90;;;;;;7367921;19;20023;-60
2023/11/07 12:12:15;;;;;;;8.27;5.75;;;11.30;99.90;;;;;;7373063;19;20119;-60
2023/11/07 12:14:55;;;;;;;7.50;4.75;;;11.30;99.90;;;;;;7370023;19;20026;-60
2023/11/07 12:17:32;;;;;;;9.50;5.57;;;11.30;99.90;;;;;;7372183;19;20025;-61
2023/11/07 12:20:07;;;;;;;11.80;6.45;;;11.20;99.90;;;;;;7369015;19;20035;-60
2023/11/07 12:22:35;;;;;;;9.40;6.75;;;11.10;99.90;;;;;;7370715;19;20019;-61
2023/11/07 12:25:21;;;;;;;8.23;6.28;;;11.00;99.90;;;;;;7372642;19;20545;-61
2023/11/07 12:27:56;;;;;;;9.65;6.53;;;11.00;99.90;;;;;;7368351;19;20039;-61
2023/11/07 12:30:23;;;;;;;9.35;6.18;;;11.00;99.90;;;;;;7374279;19;20045;-61
2023/11/07 12:33:09;;;;;;;8.82;5.72;;;11.00;99.90;;;;;;7372804;19;20014;-60
2023/11/07 12:35:36;;;;;;;9.95;6.57;;;10.90;99.90;;;;;;7371733;19;20023;-62
2023/11/07 12:38:09;;;;;;;8.63;6.65;;;11.00;99.90;;;;;;7370938;19;20018;-62
2023/11/07 12:40:36;;;;;;;10.30;6.20;;;11.00;99.90;;;;;;7371465;19;20014;-62
2023/11/07 12:43:09;;;;;;;10.27;5.65;;;11.10;99.90;;;;;;7369129;19;20477;-60
2023/11/07 12:45:36;;;;;;;8.88;5.75;;;11.00;99.90;;;;;;7371512;19;20557;-62
2023/11/07 12:48:09;;;;;;;9.18;5.28;;;10.90;99.90;;;;;;7372332;19;20029;-62
2023/11/07 12:50:42;;;;;;;4.25;1.88;;;10.70;99.90;;;;;;7374559;19;20014;-61